createdAt,value
2019-01-29T00:01:36.907Z,15.98
2019-01-29T00:06:34.183Z,17.55
2019-01-29T00:09:05.568Z,8.50
2019-01-29T00:11:35.025Z,9.70
2019-01-29T00:14:03.126Z,11.68
2019-01-29T00:16:35.827Z,14.15
2019-01-29T00:19:08.510Z,15.28
2019-01-29T00:21:41.237Z,13.75
2019-01-29T00:24:09.341Z,11.60
2019-01-29T00:26:43.960Z,10.88
2019-01-29T00:29:11.427Z,8.55
2019-01-29T00:31:39.510Z,15.15
2019-01-29T00:34:11.752Z,7.75
2019-01-29T00:36:43.508Z,8.48
2019-01-29T00:39:11.666Z,10.72
2019-01-29T00:41:44.178Z,8.13
2019-01-29T00:44:12.265Z,8.05
2019-01-29T00:46:41.998Z,11.63
2019-01-29T00:49:10.175Z,11.50
2019-01-29T00:51:38.280Z,10.28
2019-01-29T00:54:18.108Z,12.53
2019-01-29T00:56:46.603Z,10.08
2019-01-29T00:59:19.330Z,7.40
2019-01-29T01:01:44.534Z,8.98
2019-01-29T01:04:14.266Z,12.60
2019-01-29T01:06:42.369Z,7.87
2019-01-29T01:09:13.296Z,7.58
2019-01-29T01:11:41.400Z,7.03
2019-01-29T01:14:09.655Z,9.03
2019-01-29T01:16:37.757Z,12.63
2019-01-29T01:19:05.846Z,12.53
2019-01-29T01:21:33.949Z,6.58
2019-01-29T01:24:02.264Z,5.25
2019-01-29T01:26:30.962Z,5.62
2019-01-29T01:28:59.048Z,5.75
2019-01-29T01:31:28.822Z,5.95
2019-01-29T01:33:58.746Z,12.37
2019-01-29T01:36:31.416Z,6.15
2019-01-29T01:38:59.634Z,10.82
2019-01-29T01:41:32.548Z,9.18
2019-01-29T01:44:00.660Z,10.23
2019-01-29T01:46:28.744Z,15.30
2019-01-29T01:49:00.136Z,12.82
2019-01-29T01:51:29.858Z,6.75
2019-01-29T01:54:00.416Z,4.42
2019-01-29T01:56:33.084Z,8.00
2019-01-29T01:59:01.165Z,14.50
2019-01-29T02:01:29.627Z,7.65
2019-01-29T02:03:59.384Z,7.78
2019-01-29T02:06:29.198Z,11.75
2019-01-29T02:08:57.286Z,14.15
2019-01-29T02:11:25.418Z,13.43
2019-01-29T02:13:53.507Z,18.65
2019-01-29T02:16:27.861Z,13.10
2019-01-29T02:18:57.104Z,9.28
2019-01-29T02:21:26.131Z,11.83
2019-01-29T02:24:00.530Z,11.03
2019-01-29T02:26:30.539Z,11.22
2019-01-29T02:28:58.645Z,10.20
2019-01-29T02:31:32.676Z,8.95
2019-01-29T02:34:02.964Z,12.00
2019-01-29T02:36:31.087Z,9.78
2019-01-29T02:39:00.892Z,8.08
2019-01-29T02:41:34.459Z,15.20
2019-01-29T02:44:04.597Z,18.27
2019-01-29T02:46:35.699Z,10.25
2019-01-29T02:49:06.693Z,10.72
2019-01-29T02:51:35.209Z,11.55
2019-01-29T02:54:03.311Z,10.78
2019-01-29T02:56:33.623Z,16.57
2019-01-29T02:59:01.806Z,17.82
2019-01-29T03:01:31.782Z,17.20
2019-01-29T03:04:06.734Z,14.35
2019-01-29T03:06:30.511Z,15.40
2019-01-29T03:09:00.216Z,20.55
2019-01-29T03:11:30.699Z,11.68
2019-01-29T03:14:00.400Z,12.40
2019-01-29T03:16:32.312Z,9.45
2019-01-29T03:19:00.482Z,10.82
2019-01-29T03:21:31.583Z,12.37
2019-01-29T03:23:59.198Z,13.80
2019-01-29T03:26:27.747Z,8.65
2019-01-29T03:28:55.838Z,11.40
2019-01-29T03:31:23.950Z,13.88
2019-01-29T03:33:52.043Z,15.98
2019-01-29T03:36:20.363Z,15.03
2019-01-29T03:38:54.587Z,13.60
2019-01-29T03:41:26.013Z,16.60
2019-01-29T03:43:54.130Z,10.60
2019-01-29T03:46:22.218Z,17.45
2019-01-29T03:48:50.392Z,13.10
2019-01-29T03:51:18.513Z,13.03
2019-01-29T03:53:46.654Z,17.23
2019-01-29T03:56:14.739Z,14.05
2019-01-29T03:58:42.880Z,17.90
2019-01-29T04:01:14.224Z,17.98
2019-01-29T04:03:42.353Z,20.70
2019-01-29T04:06:10.454Z,15.80
2019-01-29T04:08:39.701Z,11.90
2019-01-29T04:11:09.044Z,14.47
2019-01-29T04:13:37.124Z,14.33
2019-01-29T04:16:08.518Z,20.43
2019-01-29T04:18:38.541Z,20.20
2019-01-29T04:21:09.462Z,16.65
2019-01-29T04:23:47.059Z,17.98
2019-01-29T04:26:07.345Z,8.80
2019-01-29T04:28:35.467Z,10.35
2019-01-29T04:31:03.602Z,16.35
2019-01-29T04:33:34.808Z,16.65
2019-01-29T04:36:05.165Z,14.73
2019-01-29T04:38:35.172Z,16.55
2019-01-29T04:41:04.441Z,22.87
2019-01-29T04:43:34.266Z,22.20
2019-01-29T04:46:04.054Z,16.67
2019-01-29T04:48:35.349Z,18.50
2019-01-29T04:51:03.518Z,14.47
2019-01-29T04:53:33.228Z,23.25
2019-01-29T04:58:32.656Z,15.00
2019-01-29T05:03:31.017Z,13.25
2019-01-29T05:06:05.681Z,12.82
2019-01-29T05:08:35.108Z,14.35
2019-01-29T05:11:07.021Z,19.25
2019-01-29T05:13:36.747Z,20.72
2019-01-29T05:16:06.293Z,15.28
2019-01-29T05:18:34.439Z,14.00
2019-01-29T05:24:28.970Z,17.50
2019-01-29T05:27:03.251Z,14.03
2019-01-29T05:29:31.415Z,12.63
2019-01-29T05:32:01.390Z,16.37
2019-01-29T05:34:30.696Z,12.85
2019-01-29T05:36:58.929Z,17.25
2019-01-29T05:39:31.145Z,14.35
2019-01-29T05:41:59.227Z,22.35
2019-01-29T05:44:29.035Z,13.62
2019-01-29T05:47:01.139Z,22.17
2019-01-29T05:49:32.377Z,22.40
2019-01-29T05:52:07.347Z,10.90
2019-01-29T05:54:37.199Z,15.83
2019-01-29T05:57:05.407Z,17.20
2019-01-29T05:59:33.521Z,19.12
2019-01-29T06:02:02.748Z,15.25
2019-01-29T06:04:33.099Z,20.27
2019-01-29T06:07:01.823Z,20.05
2019-01-29T06:09:30.049Z,19.40
2019-01-29T06:12:00.097Z,17.60
2019-01-29T06:14:29.753Z,17.85
2019-01-29T06:17:00.571Z,27.73
2019-01-29T06:19:28.672Z,19.27
2019-01-29T06:21:56.859Z,19.48
2019-01-29T06:24:44.796Z,20.82
2019-01-29T06:27:12.895Z,21.60
2019-01-29T06:29:42.615Z,22.60
2019-01-29T06:34:38.328Z,16.77
2019-01-29T06:37:06.435Z,20.12
2019-01-29T06:39:34.535Z,16.23
2019-01-29T06:42:04.782Z,24.37
2019-01-29T06:44:41.996Z,26.73
2019-01-29T06:47:10.097Z,20.40
2019-01-29T06:49:38.219Z,21.33
2019-01-29T06:52:06.595Z,28.57
2019-01-29T06:54:34.690Z,17.82
2019-01-29T06:57:05.015Z,22.40
2019-01-29T06:59:33.226Z,20.60
2019-01-29T07:02:02.954Z,25.52
2019-01-29T07:04:34.566Z,22.00
2019-01-29T07:07:07.380Z,27.17
2019-01-29T07:09:39.814Z,30.80
2019-01-29T07:12:07.954Z,35.50
2019-01-29T07:14:37.690Z,31.30
2019-01-29T07:17:07.956Z,28.77
2019-01-29T07:19:37.794Z,30.85
2019-01-29T07:22:06.684Z,29.18
2019-01-29T07:24:42.899Z,34.95
2019-01-29T07:27:08.728Z,33.78
2019-01-29T07:29:41.702Z,34.83
2019-01-29T07:32:09.838Z,35.90
2019-01-29T07:34:39.590Z,36.53
2019-01-29T07:37:09.372Z,34.88
2019-01-29T07:39:37.508Z,33.67
2019-01-29T07:42:10.231Z,34.13
2019-01-29T07:44:38.489Z,37.45
2019-01-29T07:47:06.588Z,36.33
2019-01-29T07:49:34.688Z,32.98
2019-01-29T07:52:04.899Z,40.25
2019-01-29T07:54:33.591Z,41.65
2019-01-29T07:57:02.029Z,35.90
2019-01-29T07:59:33.117Z,34.00
2019-01-29T08:02:02.951Z,38.35
2019-01-29T08:04:37.383Z,39.73
2019-01-29T08:07:02.555Z,36.98
2019-01-29T08:09:32.317Z,35.23
2019-01-29T08:12:00.442Z,35.38
2019-01-29T08:14:30.552Z,31.20
2019-01-29T08:16:58.739Z,39.85
2019-01-29T08:19:31.589Z,33.63
2019-01-29T08:22:02.918Z,35.58
2019-01-29T08:24:31.073Z,36.38
2019-01-29T08:27:03.663Z,26.20
2019-01-29T08:29:31.797Z,36.10
2019-01-29T08:31:59.995Z,31.45
2019-01-29T08:34:30.084Z,31.82
2019-01-29T08:39:31.473Z,30.02
2019-01-29T08:41:59.571Z,31.42
2019-01-29T08:44:27.677Z,32.28
2019-01-29T08:46:59.417Z,38.98
2019-01-29T08:49:27.203Z,29.35
2019-01-29T08:51:55.315Z,30.75
2019-01-29T08:54:23.403Z,33.67
2019-01-29T08:56:53.153Z,39.42
2019-01-29T08:59:27.225Z,28.45
2019-01-29T09:01:58.737Z,37.23
2019-01-29T09:04:26.889Z,28.17
2019-01-29T09:06:56.641Z,30.77
2019-01-29T09:09:24.845Z,28.90
2019-01-29T09:11:53.005Z,33.53
2019-01-29T09:14:21.305Z,27.87
2019-01-29T09:16:52.549Z,31.27
2019-01-29T09:19:24.419Z,35.55
2019-01-29T09:21:54.224Z,32.93
2019-01-29T09:24:24.016Z,30.57
2019-01-29T09:26:52.120Z,29.70
2019-01-29T09:29:20.217Z,30.40
2019-01-29T09:31:48.315Z,31.00
2019-01-29T09:34:22.756Z,29.48
2019-01-29T09:36:50.921Z,30.35
2019-01-29T09:39:22.081Z,28.92
2019-01-29T09:44:17.438Z,27.10
2019-01-29T09:46:49.788Z,24.35
2019-01-29T09:49:22.506Z,25.43
2019-01-29T09:51:50.640Z,27.77
2019-01-29T09:54:19.934Z,26.35
2019-01-29T09:56:48.272Z,27.00
2019-01-29T09:59:16.394Z,27.93
2019-01-29T10:01:46.136Z,28.52
2019-01-29T10:04:18.816Z,27.25
2019-01-29T10:06:47.980Z,42.85
2019-01-29T10:09:17.714Z,26.90
2019-01-29T10:11:45.806Z,29.20
2019-01-29T10:14:13.910Z,30.17
2019-01-29T10:16:44.548Z,29.87
2019-01-29T10:19:14.314Z,29.18
2019-01-29T10:21:43.826Z,34.35
2019-01-29T10:24:11.926Z,40.17
2019-01-29T10:26:40.038Z,31.25
2019-01-29T10:29:10.161Z,28.07
2019-01-29T10:31:38.266Z,27.50
2019-01-29T10:34:11.074Z,27.40
2019-01-29T10:36:39.247Z,25.37
2019-01-29T10:39:09.075Z,27.20
2019-01-29T10:41:37.264Z,22.80
2019-01-29T10:44:10.410Z,23.18
2019-01-29T10:46:41.629Z,22.85
2019-01-29T10:49:09.733Z,27.13
2019-01-29T10:51:43.541Z,19.55
2019-01-29T10:54:14.734Z,17.12
2019-01-29T10:56:45.945Z,14.93
2019-01-29T10:59:16.993Z,20.10
2019-01-29T11:01:46.883Z,20.92
2019-01-29T11:04:15.116Z,18.80
2019-01-29T11:06:43.858Z,19.75
2019-01-29T11:09:12.963Z,19.55
2019-01-29T11:11:41.065Z,21.93
2019-01-29T11:14:09.220Z,21.77
2019-01-29T11:16:41.827Z,16.37
2019-01-29T11:19:09.967Z,22.27
2019-01-29T11:21:44.229Z,19.82
2019-01-29T11:24:12.337Z,17.55
2019-01-29T11:26:40.711Z,22.62
2019-01-29T11:29:09.770Z,19.98
2019-01-29T11:31:39.040Z,18.87
2019-01-29T11:34:09.470Z,18.70
2019-01-29T11:36:37.615Z,16.45
2019-01-29T11:39:07.332Z,21.25
2019-01-29T11:41:36.961Z,22.45
2019-01-29T11:44:09.418Z,22.48
2019-01-29T11:46:37.898Z,18.85
2019-01-29T11:49:07.492Z,20.17
2019-01-29T11:51:38.892Z,22.52
2019-01-29T11:54:07.043Z,18.90
2019-01-29T11:56:36.952Z,21.75
2019-01-29T11:59:05.056Z,18.60
2019-01-29T12:01:33.161Z,23.32
2019-01-29T12:04:01.379Z,22.48
2019-01-29T12:06:29.576Z,21.33
2019-01-29T12:08:58.666Z,21.13
2019-01-29T12:11:29.336Z,20.75
2019-01-29T12:13:58.059Z,21.15
2019-01-29T12:16:26.136Z,18.62
2019-01-29T12:18:58.850Z,17.10
2019-01-29T12:21:28.886Z,18.62
2019-01-29T12:23:59.798Z,20.15
2019-01-29T12:26:27.952Z,17.57
2019-01-29T12:28:56.040Z,19.62
2019-01-29T12:31:24.132Z,21.82
2019-01-29T12:33:52.387Z,19.12
2019-01-29T12:36:23.243Z,21.42
2019-01-29T12:38:54.636Z,21.25
2019-01-29T12:41:22.734Z,19.00
2019-01-29T12:43:50.820Z,21.02
2019-01-29T12:46:18.931Z,17.95
2019-01-29T12:48:47.076Z,22.22
2019-01-29T12:51:16.830Z,21.17
2019-01-29T12:53:47.060Z,23.77
2019-01-29T12:56:21.504Z,23.50
2019-01-29T12:58:48.117Z,19.92
2019-01-29T13:01:16.224Z,21.23
2019-01-29T13:03:46.850Z,20.70
2019-01-29T13:06:14.942Z,24.02
2019-01-29T13:08:43.052Z,22.30
2019-01-29T13:11:13.680Z,21.35
2019-01-29T13:13:41.819Z,25.48
2019-01-29T13:16:12.273Z,17.32
2019-01-29T13:18:43.911Z,22.40
2019-01-29T13:21:13.782Z,23.00
2019-01-29T13:23:44.979Z,20.25
2019-01-29T13:26:15.594Z,16.75
2019-01-29T13:28:46.456Z,20.48
2019-01-29T13:31:18.947Z,23.90
2019-01-29T13:33:47.048Z,18.23
2019-01-29T13:36:15.143Z,19.27
2019-01-29T13:38:43.253Z,17.87
2019-01-29T13:41:14.052Z,22.20
2019-01-29T13:43:41.827Z,20.08
2019-01-29T13:46:11.303Z,16.90
2019-01-29T13:48:41.016Z,16.60
2019-01-29T13:58:02.395Z,15.25
2019-01-29T14:00:32.442Z,21.68
2019-01-29T14:05:33.858Z,16.30
2019-01-29T14:08:05.419Z,16.37
2019-01-29T14:10:34.707Z,16.93
2019-01-29T14:13:02.687Z,15.40
2019-01-29T14:15:32.425Z,19.92
2019-01-29T14:18:00.588Z,21.85
2019-01-29T14:20:28.734Z,14.03
2019-01-29T14:22:57.010Z,19.37
2019-01-29T14:25:25.254Z,15.95
2019-01-29T14:27:59.427Z,18.02
2019-01-29T14:30:30.541Z,12.53
2019-01-29T14:33:01.285Z,16.23
2019-01-29T14:35:30.565Z,19.23
2019-01-29T14:38:00.279Z,13.98
2019-01-29T14:40:30.092Z,15.88
2019-01-29T14:42:58.172Z,14.93
2019-01-29T14:45:31.344Z,14.90
2019-01-29T14:48:02.886Z,15.63
2019-01-29T14:50:31.033Z,15.13
2019-01-29T14:52:59.129Z,18.82
2019-01-29T14:55:27.642Z,14.68
2019-01-29T14:57:56.019Z,17.45
2019-01-29T15:00:25.734Z,15.68
2019-01-29T15:02:54.290Z,13.48
2019-01-29T15:05:23.530Z,14.75
2019-01-29T15:07:54.681Z,16.45
2019-01-29T15:10:26.036Z,16.30
2019-01-29T15:12:56.716Z,19.15
2019-01-29T15:15:28.773Z,16.27
2019-01-29T15:17:58.644Z,13.58
2019-01-29T15:20:26.733Z,15.53
2019-01-29T15:22:57.864Z,18.17
2019-01-29T15:25:27.560Z,18.50
2019-01-29T15:27:56.748Z,14.70
2019-01-29T15:30:28.118Z,16.20
2019-01-29T15:32:58.084Z,16.93
2019-01-29T15:35:28.603Z,16.73
2019-01-29T15:37:56.726Z,16.25
2019-01-29T15:40:26.439Z,16.27
2019-01-29T15:42:56.275Z,25.52
2019-01-29T15:45:27.372Z,18.20
2019-01-29T15:47:55.534Z,18.27
2019-01-29T15:50:25.262Z,17.62
2019-01-29T15:52:53.454Z,19.55
2019-01-29T15:55:23.924Z,12.68
2019-01-29T15:57:54.032Z,15.60
2019-01-29T16:02:55.436Z,16.02
2019-01-29T16:05:26.804Z,15.10
2019-01-29T16:07:54.924Z,16.67
2019-01-29T16:10:29.195Z,21.30
2019-01-29T16:12:58.478Z,16.90
2019-01-29T16:15:27.305Z,23.87
2019-01-29T16:17:55.562Z,20.97
2019-01-29T16:20:24.642Z,16.67
2019-01-29T16:22:52.721Z,22.00
2019-01-29T16:25:22.042Z,20.17
2019-01-29T16:27:50.200Z,20.15
2019-01-29T16:30:19.931Z,26.05
2019-01-29T16:32:49.622Z,22.05
2019-01-29T16:35:20.233Z,18.98
2019-01-29T16:37:51.386Z,21.35
2019-01-29T16:40:21.113Z,22.50
2019-01-29T16:42:50.345Z,26.12
2019-01-29T16:45:19.814Z,27.35
2019-01-29T16:47:49.559Z,24.98
2019-01-29T16:50:23.443Z,24.65
2019-01-29T16:52:51.697Z,29.00
2019-01-29T16:55:22.215Z,17.23
2019-01-29T16:57:50.375Z,27.00
2019-01-29T17:00:21.195Z,21.45
2019-01-29T17:02:49.273Z,22.20
2019-01-29T17:05:17.365Z,25.32
2019-01-29T17:07:45.471Z,24.15
2019-01-29T17:10:14.929Z,23.77
2019-01-29T17:12:44.733Z,26.77
2019-01-29T17:15:14.507Z,22.22
2019-01-29T17:17:46.701Z,22.93
2019-01-29T17:20:16.514Z,24.43
2019-01-29T17:22:44.714Z,18.75
2019-01-29T17:25:15.865Z,22.17
2019-01-29T17:27:45.770Z,19.42
2019-01-29T17:30:15.715Z,23.70
2019-01-29T17:32:43.834Z,23.18
2019-01-29T17:35:11.944Z,24.20
2019-01-29T17:37:40.532Z,25.40
2019-01-29T17:40:11.998Z,22.20
2019-01-29T17:42:40.094Z,18.45
2019-01-29T17:45:11.542Z,18.65
2019-01-29T17:47:39.654Z,23.62
2019-01-29T17:50:12.780Z,25.52
2019-01-29T17:52:44.972Z,23.65
2019-01-29T17:55:14.227Z,26.55
2019-01-29T17:57:50.488Z,23.97
2019-01-29T18:00:16.531Z,24.50
2019-01-29T18:02:45.822Z,25.65
2019-01-29T18:05:17.046Z,24.75
2019-01-29T18:07:48.058Z,24.67
2019-01-29T18:10:19.648Z,27.17
2019-01-29T18:12:49.762Z,25.85
2019-01-29T18:15:19.254Z,18.60
2019-01-29T18:17:51.929Z,26.07
2019-01-29T18:20:20.039Z,25.02
2019-01-29T18:22:48.230Z,21.05
2019-01-29T18:25:22.427Z,29.02
2019-01-29T18:28:00.631Z,21.48
2019-01-29T18:30:23.119Z,19.85
2019-01-29T18:32:54.030Z,25.88
2019-01-29T18:35:22.172Z,25.00
2019-01-29T18:37:53.019Z,20.88
2019-01-29T18:40:27.919Z,30.27
2019-01-29T18:42:57.640Z,24.07
2019-01-29T18:45:28.817Z,25.10
2019-01-29T18:47:56.925Z,22.05
2019-01-29T18:50:26.653Z,21.05
2019-01-29T18:52:57.652Z,23.07
2019-01-29T18:55:26.157Z,25.52
2019-01-29T18:57:54.274Z,30.15
2019-01-29T19:00:23.244Z,22.00
2019-01-29T19:02:53.590Z,27.62
2019-01-29T19:05:25.588Z,23.25
2019-01-29T19:07:53.944Z,23.22
2019-01-29T19:10:26.961Z,27.02
2019-01-29T19:13:04.088Z,26.73
2019-01-29T19:15:32.588Z,29.57
2019-01-29T19:18:01.285Z,25.55
2019-01-29T19:20:33.007Z,24.70
2019-01-29T19:23:04.110Z,23.10
2019-01-29T19:25:35.379Z,23.27
2019-01-29T19:28:07.770Z,27.60
2019-01-29T19:30:35.886Z,31.02
2019-01-29T19:33:05.625Z,31.00
2019-01-29T19:35:33.860Z,29.10
2019-01-29T19:38:01.975Z,31.55
2019-01-29T19:40:40.343Z,29.65
2019-01-29T19:43:03.925Z,21.68
2019-01-29T19:45:35.003Z,25.92
2019-01-29T19:48:06.639Z,26.23
2019-01-29T19:50:36.311Z,23.98
2019-01-29T19:53:04.515Z,30.77
2019-01-29T19:55:34.397Z,29.25
2019-01-29T19:58:08.776Z,29.10
2019-01-29T20:00:35.778Z,27.77
2019-01-29T20:03:04.516Z,30.27
2019-01-29T20:05:35.696Z,24.90
2019-01-29T20:08:04.014Z,30.60
2019-01-29T20:10:34.845Z,25.77
2019-01-29T20:13:02.983Z,33.18
2019-01-29T20:15:34.960Z,29.67
2019-01-29T20:18:03.094Z,23.67
2019-01-29T20:20:35.774Z,32.83
2019-01-29T20:23:08.226Z,27.48
2019-01-29T20:25:37.924Z,29.15
2019-01-29T20:28:09.539Z,27.15
2019-01-29T20:30:38.713Z,25.23
2019-01-29T20:33:08.183Z,25.60
2019-01-29T20:35:38.021Z,29.75
2019-01-29T20:38:07.552Z,26.68
2019-01-29T20:40:41.441Z,24.75
2019-01-29T20:43:18.765Z,24.50
2019-01-29T20:45:48.488Z,30.10
2019-01-29T20:48:22.879Z,27.30
2019-01-29T20:50:54.386Z,22.50
2019-01-29T20:53:29.634Z,34.08
2019-01-29T20:55:57.745Z,34.70
2019-01-29T20:58:30.070Z,32.83
2019-01-29T21:00:58.810Z,29.75
2019-01-29T21:03:27.658Z,30.57
2019-01-29T21:05:57.721Z,25.80
2019-01-29T21:10:54.780Z,29.07
2019-01-29T21:13:27.100Z,26.70
2019-01-29T21:15:55.339Z,28.35
2019-01-29T21:18:25.074Z,28.30
2019-01-29T21:20:57.075Z,26.05
2019-01-29T21:23:23.015Z,29.40
2019-01-29T21:25:52.840Z,29.00
2019-01-29T21:28:23.986Z,31.52
2019-01-29T21:31:03.156Z,29.50
2019-01-29T21:33:32.162Z,33.97
2019-01-29T21:36:02.104Z,32.23
2019-01-29T21:38:32.450Z,25.48
2019-01-29T21:41:02.268Z,26.97
2019-01-29T21:43:41.863Z,22.40
2019-01-29T21:46:16.971Z,29.80
2019-01-29T21:48:48.933Z,27.58
2019-01-29T21:51:24.288Z,26.82
2019-01-29T21:53:55.128Z,26.62
2019-01-29T21:56:27.547Z,25.80
2019-01-29T21:58:55.645Z,27.37
2019-01-29T22:01:23.766Z,30.08
2019-01-29T22:03:52.042Z,29.32
2019-01-29T22:06:20.167Z,25.25
2019-01-29T22:08:48.272Z,26.33
2019-01-29T22:11:16.369Z,23.62
2019-01-29T22:13:47.447Z,28.35
2019-01-29T22:16:18.637Z,29.05
2019-01-29T22:18:49.499Z,31.37
2019-01-29T22:21:17.707Z,25.57
2019-01-29T22:23:46.631Z,26.42
2019-01-29T22:26:17.939Z,24.92
2019-01-29T22:28:52.005Z,28.00
2019-01-29T22:31:22.009Z,31.10
2019-01-29T22:33:50.127Z,28.90
2019-01-29T22:36:22.399Z,24.80
2019-01-29T22:38:50.595Z,27.02
2019-01-29T22:41:18.747Z,24.05
2019-01-29T22:43:47.900Z,26.20
2019-01-29T22:46:16.120Z,26.15
2019-01-29T22:48:44.205Z,25.52
2019-01-29T22:51:15.044Z,25.27
2019-01-29T22:53:44.735Z,26.75
2019-01-29T22:56:12.847Z,22.73
2019-01-29T22:58:41.012Z,26.90
2019-01-29T23:01:22.891Z,26.10
2019-01-29T23:03:51.178Z,27.48
2019-01-29T23:06:32.796Z,24.45
2019-01-29T23:09:02.709Z,25.35
2019-01-29T23:11:33.556Z,24.32
2019-01-29T23:14:03.812Z,26.20
2019-01-29T23:16:35.906Z,26.77
2019-01-29T23:19:04.082Z,23.20
2019-01-29T23:21:36.682Z,25.30
2019-01-29T23:24:04.781Z,20.43
2019-01-29T23:26:32.868Z,21.52
2019-01-29T23:29:01.038Z,21.07
2019-01-29T23:31:32.654Z,18.82
2019-01-29T23:34:01.556Z,23.07
2019-01-29T23:36:29.676Z,27.05
2019-01-29T23:38:57.769Z,23.75
2019-01-29T23:41:29.882Z,26.07
2019-01-29T23:43:58.028Z,26.65
2019-01-29T23:46:29.372Z,21.07
2019-01-29T23:49:01.228Z,23.62
2019-01-29T23:51:33.876Z,25.62
2019-01-29T23:54:02.022Z,25.55
2019-01-29T23:56:31.930Z,27.87
2019-01-29T23:59:00.088Z,26.15
